Time;durP1;ratioP1;P1;durP2;ratioP2;P2;SDS_P1;SDS_P2;PMS_P1;PMS_P2;Temp;Humidity;BMP_temperature;BMP_pressure;BME280_temperature;BME280_humidity;BME280_pressure;Samples;Min_cycle;Max_cycle;Signal;HPM_P1;HPM_P2
2022/03/10 00:02:02;;;;;;;;;;;0.50;72.40;;;;;;4992281;28;82957;-49
2022/03/10 00:04:28;;;;;;;;;;;0.50;72.40;;;;;;4994708;28;83822;-50
2022/03/10 00:06:54;;;;;;;;;;;0.50;72.30;;;;;;4992449;28;81840;-53
2022/03/10 00:09:19;;;;;;;;;;;0.50;72.30;;;;;;4992606;28;81732;-53
2022/03/10 00:11:47;;;;;;;;;;;0.50;72.40;;;;;;4992360;28;82134;-49
2022/03/10 00:14:13;;;;;;;;;;;0.50;72.50;;;;;;4992086;28;83099;-50
2022/03/10 00:16:40;;;;;;;;;;;0.50;72.30;;;;;;4991162;28;83565;-48
2022/03/10 00:19:07;;;;;;;;;;;0.50;72.20;;;;;;4992056;28;81833;-49
2022/03/10 00:21:33;;;;;;;;;;;0.60;72.10;;;;;;4991865;28;82027;-52
2022/03/10 00:23:58;;;;;;;;;;;0.60;72.00;;;;;;4991645;28;83678;-49
2022/03/10 00:26:24;;;;;;;;;;;0.60;71.90;;;;;;4994545;28;81827;-49
2022/03/10 00:28:50;;;;;;;;;;;0.50;72.00;;;;;;4991530;28;82590;-49
2022/03/10 00:31:15;;;;;;;;;;;0.60;72.00;;;;;;4991711;28;81827;-49
2022/03/10 00:33:41;;;;;;;;;;;0.50;72.10;;;;;;4992542;28;81084;-49
2022/03/10 00:36:07;;;;;;;;;;;0.50;72.20;;;;;;4991434;28;83455;-50
2022/03/10 00:38:33;;;;;;;;;;;0.50;72.00;;;;;;4991640;28;82348;-49
2022/03/10 00:40:59;;;;;;;;;;;0.50;72.30;;;;;;4991072;28;83136;-49
2022/03/10 00:43:25;;;;;;;;;;;0.50;72.30;;;;;;4991535;28;81774;-49
2022/03/10 00:45:50;;;;;;;;;;;0.50;72.20;;;;;;4994306;28;81837;-52
2022/03/10 00:48:16;;;;;;;;;;;0.50;72.10;;;;;;4991079;28;82253;-49
2022/03/10 00:50:42;;;;;;;;;;;0.50;72.10;;;;;;4991380;28;81751;-50
2022/03/10 00:53:07;;;;;;;;;;;0.50;72.10;;;;;;4991664;28;81793;-48
2022/03/10 00:55:33;;;;;;;;;;;0.50;72.10;;;;;;4991192;28;82385;-50
2022/03/10 00:57:59;;;;;;;;;;;0.50;72.00;;;;;;4991627;28;81202;-50
2022/03/10 01:00:28;;;;;;;;;;;0.50;71.90;;;;;;4991531;28;81763;-48
2022/03/10 01:02:54;;;;;;;;;;;0.50;71.90;;;;;;4990979;28;83288;-52
2022/03/10 01:05:20;;;;;;;;;;;0.50;71.90;;;;;;4990649;28;82769;-51
2022/03/10 01:07:45;;;;;;;;;;;0.50;72.00;;;;;;4993836;28;82646;-48
2022/03/10 01:10:11;;;;;;;;;;;0.50;72.00;;;;;;4991219;28;81898;-48
2022/03/10 01:12:41;;;;;;;;;;;0.50;72.00;;;;;;4991041;28;83198;-48
2022/03/10 01:15:11;;;;;;;;;;;0.50;72.00;;;;;;4990790;28;82599;-48
2022/03/10 01:17:37;;;;;;;;;;;0.40;71.90;;;;;;4991142;28;81747;-48
2022/03/10 01:20:03;;;;;;;;;;;0.50;71.90;;;;;;4991107;28;82769;-48
2022/03/10 01:22:28;;;;;;;;;;;0.50;72.00;;;;;;4991235;28;83170;-48
2022/03/10 01:24:54;;;;;;;;;;;0.40;72.00;;;;;;4973459;28;81807;-48
2022/03/10 01:27:20;;;;;;;;;;;0.40;72.00;;;;;;4990899;28;83162;-48
2022/03/10 01:29:46;;;;;;;;;;;0.50;72.00;;;;;;4992592;28;83484;-49
2022/03/10 01:32:12;;;;;;;;;;;0.40;72.00;;;;;;4991098;28;82807;-48
2022/03/10 01:34:37;;;;;;;;;;;0.50;71.90;;;;;;4990566;28;82674;-48
2022/03/10 01:37:03;;;;;;;;;;;0.40;71.90;;;;;;4990629;28;82033;-48
2022/03/10 01:39:32;;;;;;;;;;;0.50;72.00;;;;;;4990735;28;82967;-48
2022/03/10 01:41:58;;;;;;;;;;;0.50;71.80;;;;;;4990807;28;82511;-48
2022/03/10 01:44:24;;;;;;;;;;;0.50;71.90;;;;;;4990636;28;82293;-48
2022/03/10 01:46:49;;;;;;;;;;;0.40;71.90;;;;;;4990922;28;81814;-48
2022/03/10 01:49:15;;;;;;;;;;;0.40;72.00;;;;;;4989786;28;82735;-49
2022/03/10 01:51:41;;;;;;;;;;;0.40;72.00;;;;;;4993179;28;81900;-48
2022/03/10 01:54:09;;;;;;;;;;;0.40;72.10;;;;;;4990024;28;82737;-48
2022/03/10 01:56:35;;;;;;;;;;;0.30;72.20;;;;;;4990413;28;82028;-48
2022/03/10 01:59:02;;;;;;;;;;;0.40;72.20;;;;;;4990727;28;81930;-48
2022/03/10 02:01:28;;;;;;;;;;;0.40;72.10;;;;;;4990259;28;82624;-48
2022/03/10 02:03:57;;;;;;;;;;;0.40;71.90;;;;;;4990651;28;81830;-48
2022/03/10 02:06:23;;;;;;;;;;;0.40;71.90;;;;;;4990449;28;82868;-48
2022/03/10 02:11:33;;;;;;;;;;;0.40;72.10;;;;;;4991035;28;81099;-48
2022/03/10 02:17:19;;;;;;;;;;;0.40;71.90;;;;;;4993119;28;81983;-49
2022/03/10 02:19:29;;;;;;;;;;;0.40;72.20;;;;;;4990027;28;82733;-49
2022/03/10 02:21:57;;;;;;;;;;;0.30;72.10;;;;;;4990292;28;82531;-50
2022/03/10 02:24:23;;;;;;;;;;;0.30;72.20;;;;;;4990114;28;81719;-49
2022/03/10 02:26:48;;;;;;;;;;;0.30;72.10;;;;;;4990346;28;81796;-48
2022/03/10 02:29:15;;;;;;;;;;;0.30;72.10;;;;;;4989837;28;83481;-48
2022/03/10 02:31:41;;;;;;;;;;;0.30;72.20;;;;;;4989976;28;81863;-48
2022/03/10 02:34:09;;;;;;;;;;;0.30;72.10;;;;;;4990317;28;81681;-48
2022/03/10 02:36:35;;;;;;;;;;;0.30;72.20;;;;;;4991937;28;81022;-49
2022/03/10 02:39:00;;;;;;;;;;;0.30;72.20;;;;;;4990293;28;81891;-48
2022/03/10 02:41:26;;;;;;;;;;;0.30;72.10;;;;;;4989913;28;81956;-48
2022/03/10 02:43:53;;;;;;;;;;;0.30;72.10;;;;;;4989571;28;82794;-48
2022/03/10 02:46:18;;;;;;;;;;;0.30;72.10;;;;;;4989755;28;82779;-48
2022/03/10 02:48:44;;;;;;;;;;;0.30;72.20;;;;;;4989631;28;82385;-48
2022/03/10 02:51:09;;;;;;;;;;;0.30;72.20;;;;;;4989734;28;82225;-49
2022/03/10 02:53:35;;;;;;;;;;;0.30;72.20;;;;;;4989755;28;82048;-49
2022/03/10 02:56:01;;;;;;;;;;;0.30;72.10;;;;;;4992499;28;82044;-49
2022/03/10 02:58:26;;;;;;;;;;;0.20;72.10;;;;;;4989650;28;82927;-48
2022/03/10 03:00:52;;;;;;;;;;;0.20;72.10;;;;;;4989953;28;82737;-48
2022/03/10 03:03:18;;;;;;;;;;;0.20;72.00;;;;;;4989704;28;82174;-48
2022/03/10 03:05:44;;;;;;;;;;;0.30;71.90;;;;;;4989844;28;81859;-48
2022/03/10 03:08:09;;;;;;;;;;;0.30;71.80;;;;;;4988670;28;83520;-48
2022/03/10 03:10:36;;;;;;;;;;;0.20;71.90;;;;;;4989447;28;82115;-48
2022/03/10 03:13:03;;;;;;;;;;;0.30;71.90;;;;;;4989536;28;82870;-48
2022/03/10 03:15:28;;;;;;;;;;;0.30;71.80;;;;;;4989268;28;82601;-48
2022/03/10 03:17:54;;;;;;;;;;;0.20;71.70;;;;;;4992609;28;81879;-48
2022/03/10 03:20:20;;;;;;;;;;;0.20;71.80;;;;;;4991580;28;83457;-48
2022/03/10 03:22:45;;;;;;;;;;;0.30;71.70;;;;;;4993190;28;81853;-49
2022/03/10 03:25:14;;;;;;;;;;;0.20;71.60;;;;;;4993369;28;82467;-49
2022/03/10 03:27:41;;;;;;;;;;;0.20;71.60;;;;;;4992656;28;83521;-48
2022/03/10 03:30:07;;;;;;;;;;;0.20;71.70;;;;;;4992812;28;81862;-49
2022/03/10 03:32:34;;;;;;;;;;;0.20;71.70;;;;;;4992154;28;83101;-48
2022/03/10 03:34:59;;;;;;;;;;;0.20;71.50;;;;;;4992527;28;82879;-48
2022/03/10 03:37:26;;;;;;;;;;;0.20;71.70;;;;;;4992594;28;82048;-48
2022/03/10 03:39:52;;;;;;;;;;;0.20;71.60;;;;;;4995635;28;81893;-48
2022/03/10 03:42:18;;;;;;;;;;;0.20;71.60;;;;;;4992591;28;82338;-48
2022/03/10 03:44:43;;;;;;;;;;;0.10;71.60;;;;;;4992856;28;82130;-48
2022/03/10 03:47:09;;;;;;;;;;;0.10;71.70;;;;;;4988847;28;87486;-48
2022/03/10 03:49:35;;;;;;;;;;;0.10;71.50;;;;;;4989482;28;86018;-48
2022/03/10 03:52:00;;;;;;;;;;;0.10;71.70;;;;;;4989199;28;87311;-48
2022/03/10 03:54:26;;;;;;;;;;;0.10;71.70;;;;;;4989069;28;87573;-48
2022/03/10 03:56:52;;;;;;;;;;;0.10;71.70;;;;;;4988488;28;88085;-48
2022/03/10 03:59:20;;;;;;;;;;;0.10;71.70;;;;;;4989027;28;88267;-48
2022/03/10 04:01:45;;;;;;;;;;;0.10;71.70;;;;;;4991477;28;88522;-48
2022/03/10 04:04:12;;;;;;;;;;;0.10;71.70;;;;;;4989052;28;87023;-48
2022/03/10 04:06:37;;;;;;;;;;;0.10;71.60;;;;;;4988552;28;88430;-49
2022/03/10 04:09:03;;;;;;;;;;;0.10;71.60;;;;;;4988752;28;86919;-48
2022/03/10 04:11:47;;;;;;;;;;;0.10;71.40;;;;;;4989059;28;86818;-49
2022/03/10 04:14:13;;;;;;;;;;;0.00;71.40;;;;;;4989075;28;86756;-48
2022/03/10 04:16:39;;;;;;;;;;;0.00;71.40;;;;;;4988940;28;86845;-49
2022/03/10 04:19:05;;;;;;;;;;;0.00;71.30;;;;;;4988131;28;87294;-48
2022/03/10 04:21:31;;;;;;;;;;;0.10;71.00;;;;;;4987700;28;88703;-48
2022/03/10 04:23:56;;;;;;;;;;;0.00;71.10;;;;;;4991874;28;86735;-48
2022/03/10 04:26:22;;;;;;;;;;;-0.10;71.20;;;;;;4988202;28;87667;-49
2022/03/10 04:28:47;;;;;;;;;;;0.00;71.30;;;;;;4988515;28;86824;-49
2022/03/10 04:31:13;;;;;;;;;;;0.00;71.10;;;;;;4987675;28;87853;-48
2022/03/10 04:33:39;;;;;;;;;;;0.00;71.10;;;;;;4988091;28;88663;-48
2022/03/10 04:36:05;;;;;;;;;;;-0.10;71.00;;;;;;4988631;28;86917;-48
2022/03/10 04:38:30;;;;;;;;;;;-0.10;70.90;;;;;;4988921;28;87049;-48
2022/03/10 04:40:56;;;;;;;;;;;-0.10;70.90;;;;;;4987992;28;87844;-48
2022/03/10 04:43:21;;;;;;;;;;;-0.10;70.90;;;;;;4988510;28;86878;-48
2022/03/10 04:45:47;;;;;;;;;;;-0.10;70.80;;;;;;4990106;28;88068;-49
2022/03/10 04:48:13;;;;;;;;;;;-0.10;70.80;;;;;;4987840;28;86832;-48
2022/03/10 04:50:38;;;;;;;;;;;-0.10;70.80;;;;;;4988483;28;86830;-48
2022/03/10 04:53:04;;;;;;;;;;;-0.10;70.90;;;;;;4988036;28;87138;-49
2022/03/10 04:55:30;;;;;;;;;;;-0.10;70.90;;;;;;4988145;28;87142;-48
2022/03/10 04:57:56;;;;;;;;;;;-0.10;70.70;;;;;;4988247;28;86951;-48
2022/03/10 05:00:22;;;;;;;;;;;-0.10;70.70;;;;;;4987575;28;87640;-48
2022/03/10 05:02:48;;;;;;;;;;;-0.10;70.70;;;;;;4988566;28;86367;-48
2022/03/10 05:05:14;;;;;;;;;;;-0.10;70.70;;;;;;4990397;28;87151;-49
2022/03/10 05:07:41;;;;;;;;;;;-0.10;70.60;;;;;;4987919;28;86869;-48
2022/03/10 05:10:07;;;;;;;;;;;-0.10;70.70;;;;;;4987104;28;87856;-48
2022/03/10 05:12:33;;;;;;;;;;;-0.10;70.70;;;;;;4987517;28;89004;-48
2022/03/10 05:14:59;;;;;;;;;;;-0.10;70.70;;;;;;4987822;28;86899;-48
2022/03/10 05:17:25;;;;;;;;;;;-0.10;70.70;;;;;;4987778;28;88084;-48
2022/03/10 05:19:51;;;;;;;;;;;-0.20;70.70;;;;;;4987346;28;88602;-48
2022/03/10 05:22:17;;;;;;;;;;;-0.20;70.70;;;;;;4987724;28;86894;-48
2022/03/10 05:24:43;;;;;;;;;;;-0.10;70.40;;;;;;4987958;28;86889;-48
2022/03/10 05:27:08;;;;;;;;;;;-0.20;70.40;;;;;;4990535;28;87774;-48
2022/03/10 05:29:35;;;;;;;;;;;-0.20;70.40;;;;;;4987562;28;87597;-48
2022/03/10 05:32:00;;;;;;;;;;;-0.20;71.20;;;;;;4986317;28;88057;-48
2022/03/10 05:34:26;;;;;;;;;;;-0.20;70.40;;;;;;4986826;28;87855;-48
2022/03/10 05:36:52;;;;;;;;;;;-0.20;70.40;;;;;;4987768;28;87793;-48
2022/03/10 05:39:17;;;;;;;;;;;-0.20;70.50;;;;;;4987129;28;87581;-49
2022/03/10 05:41:43;;;;;;;;;;;-0.20;70.20;;;;;;4987454;28;86966;-48
2022/03/10 05:44:08;;;;;;;;;;;-0.20;70.30;;;;;;4987402;28;87873;-48
2022/03/10 05:46:34;;;;;;;;;;;-0.20;70.40;;;;;;4986773;28;88625;-48
2022/03/10 05:49:00;;;;;;;;;;;-0.20;70.20;;;;;;4990485;28;86982;-49
2022/03/10 05:51:25;;;;;;;;;;;-0.20;70.20;;;;;;4987498;28;87868;-48
2022/03/10 05:53:52;;;;;;;;;;;-0.20;70.20;;;;;;4987306;28;87061;-48
2022/03/10 05:56:17;;;;;;;;;;;-0.20;70.30;;;;;;4987215;28;87070;-48
2022/03/10 05:58:43;;;;;;;;;;;-0.20;70.10;;;;;;4986265;28;89339;-48
2022/03/10 06:01:09;;;;;;;;;;;-0.30;70.20;;;;;;4987063;28;86879;-48
2022/03/10 06:03:34;;;;;;;;;;;-0.20;70.40;;;;;;4987204;28;86840;-48
2022/03/10 06:06:00;;;;;;;;;;;-0.20;70.10;;;;;;4986763;28;88782;-48
2022/03/10 06:08:25;;;;;;;;;;;-0.20;70.20;;;;;;4986945;28;86762;-48
2022/03/10 06:10:51;;;;;;;;;;;-0.20;69.90;;;;;;4989565;28;87895;-48
2022/03/10 06:13:17;;;;;;;;;;;-0.20;70.00;;;;;;4987339;28;86960;-48
2022/03/10 06:15:42;;;;;;;;;;;-0.30;70.00;;;;;;4987764;28;86844;-48
2022/03/10 06:18:08;;;;;;;;;;;-0.20;70.10;;;;;;4986542;28;88582;-48
2022/03/10 06:20:34;;;;;;;;;;;-0.20;69.90;;;;;;4986915;28;86913;-48
2022/03/10 06:23:00;;;;;;;;;;;-0.20;70.00;;;;;;4986297;28;88109;-48
2022/03/10 06:25:26;;;;;;;;;;;-0.20;70.00;;;;;;4986598;28;87551;-49
2022/03/10 06:27:52;;;;;;;;;;;-0.20;70.00;;;;;;4986876;28;87073;-48
2022/03/10 06:30:18;;;;;;;;;;;-0.20;70.00;;;;;;4986656;28;87013;-48
2022/03/10 06:32:43;;;;;;;;;;;-0.20;70.20;;;;;;4989120;28;88489;-48
2022/03/10 06:35:09;;;;;;;;;;;-0.20;69.60;;;;;;4986745;28;88111;-48
2022/03/10 06:37:36;;;;;;;;;;;-0.20;69.60;;;;;;4986172;28;88649;-49
2022/03/10 06:40:02;;;;;;;;;;;-0.20;69.40;;;;;;4987125;28;86095;-48
2022/03/10 06:42:30;;;;;;;;;;;-0.20;69.30;;;;;;4986559;28;87315;-48
2022/03/10 06:44:55;;;;;;;;;;;-0.20;69.30;;;;;;4986191;28;88605;-48
2022/03/10 06:47:21;;;;;;;;;;;-0.20;69.30;;;;;;4985854;28;87785;-48
2022/03/10 06:49:46;;;;;;;;;;;-0.20;69.20;;;;;;4986455;28;88324;-48
2022/03/10 06:52:12;;;;;;;;;;;-0.20;69.10;;;;;;4986143;28;88576;-48
2022/03/10 06:54:38;;;;;;;;;;;-0.20;69.10;;;;;;4988778;28;86945;-48
2022/03/10 06:57:05;;;;;;;;;;;-0.20;69.20;;;;;;4986085;28;87593;-48
2022/03/10 06:59:31;;;;;;;;;;;-0.20;69.10;;;;;;4986305;28;86858;-48
2022/03/10 07:01:56;;;;;;;;;;;-0.10;69.00;;;;;;4986386;28;87033;-48
2022/03/10 07:04:22;;;;;;;;;;;-0.10;68.90;;;;;;4986722;28;86705;-48
2022/03/10 07:06:48;;;;;;;;;;;-0.20;68.80;;;;;;4986251;28;86874;-48
2022/03/10 07:09:13;;;;;;;;;;;-0.20;68.80;;;;;;4986165;28;87082;-48
2022/03/10 07:11:39;;;;;;;;;;;-0.20;68.60;;;;;;4985490;28;88479;-48
2022/03/10 07:14:05;;;;;;;;;;;-0.10;68.80;;;;;;4989164;28;86797;-48
2022/03/10 07:16:31;;;;;;;;;;;-0.10;68.80;;;;;;4985771;28;87638;-48
2022/03/10 07:18:56;;;;;;;;;;;-0.20;68.20;;;;;;4986367;28;87060;-48
2022/03/10 07:21:22;;;;;;;;;;;-0.20;68.70;;;;;;4986299;28;88612;-48
2022/03/10 07:23:48;;;;;;;;;;;-0.20;68.60;;;;;;4986119;28;87376;-48
2022/03/10 07:26:14;;;;;;;;;;;-0.20;68.50;;;;;;4986387;28;87115;-48
2022/03/10 07:28:40;;;;;;;;;;;-0.30;68.10;;;;;;4986786;28;86085;-49
2022/03/10 07:31:06;;;;;;;;;;;-0.20;67.90;;;;;;4985801;28;87392;-48
2022/03/10 07:33:33;;;;;;;;;;;-0.20;67.90;;;;;;4986075;28;86846;-48
2022/03/10 07:35:58;;;;;;;;;;;-0.20;67.70;;;;;;4987961;28;88037;-48
2022/03/10 07:38:24;;;;;;;;;;;-0.20;67.60;;;;;;4986132;28;87184;-48
2022/03/10 07:40:50;;;;;;;;;;;-0.20;67.50;;;;;;4986269;28;86921;-48
2022/03/10 07:43:17;;;;;;;;;;;-0.20;67.40;;;;;;4985515;28;87679;-48
2022/03/10 07:45:44;;;;;;;;;;;-0.20;67.40;;;;;;4985874;28;86918;-48
2022/03/10 07:48:09;;;;;;;;;;;-0.20;67.40;;;;;;4985576;28;87824;-49
2022/03/10 07:50:35;;;;;;;;;;;-0.20;67.30;;;;;;4985529;28;88561;-48
2022/03/10 07:53:01;;;;;;;;;;;-0.20;67.20;;;;;;4986327;28;86233;-48
2022/03/10 07:55:28;;;;;;;;;;;-0.30;67.40;;;;;;4985684;28;86908;-48
2022/03/10 07:57:55;;;;;;;;;;;-0.30;67.20;;;;;;4988222;28;88548;-48
2022/03/10 08:00:20;;;;;;;;;;;-0.30;67.30;;;;;;4985356;28;87812;-48
2022/03/10 08:02:47;;;;;;;;;;;-0.30;67.10;;;;;;4985622;28;86966;-49
2022/03/10 08:05:12;;;;;;;;;;;-0.30;67.20;;;;;;4985701;28;86793;-48
2022/03/10 08:07:38;;;;;;;;;;;-0.30;67.20;;;;;;4988620;28;86817;-48
2022/03/10 08:10:05;;;;;;;;;;;-0.30;67.10;;;;;;4988701;28;87537;-48
2022/03/10 08:12:32;;;;;;;;;;;-0.30;67.20;;;;;;4988888;28;86847;-48
2022/03/10 08:14:58;;;;;;;;;;;-0.20;66.90;;;;;;4988827;28;88082;-48
2022/03/10 08:17:25;;;;;;;;;;;-0.30;67.00;;;;;;4988958;28;87171;-48
2022/03/10 08:19:51;;;;;;;;;;;-0.30;67.10;;;;;;4991334;28;86951;-48
2022/03/10 08:22:17;;;;;;;;;;;-0.40;67.60;;;;;;4988607;28;87608;-49
2022/03/10 08:24:44;;;;;;;;;;;-0.30;67.70;;;;;;4988013;28;88002;-48
2022/03/10 08:27:09;;;;;;;;;;;-0.40;67.80;;;;;;4988607;28;87944;-48
2022/03/10 08:29:35;;;;;;;;;;;-0.40;67.50;;;;;;4988139;28;88544;-48
2022/03/10 08:32:01;;;;;;;;;;;-0.30;67.30;;;;;;4988440;28;86916;-48
2022/03/10 08:34:26;;;;;;;;;;;-0.40;67.60;;;;;;4988422;28;87757;-49
2022/03/10 08:36:52;;;;;;;;;;;-0.30;68.20;;;;;;4988339;28;87614;-48
2022/03/10 08:39:18;;;;;;;;;;;-0.30;67.60;;;;;;4988397;28;86852;-48
2022/03/10 08:41:44;;;;;;;;;;;-0.40;67.50;;;;;;4991366;28;88513;-49
2022/03/10 08:44:12;;;;;;;;;;;-0.30;67.30;;;;;;4988403;28;86855;-48
2022/03/10 08:46:37;;;;;;;;;;;-0.30;67.30;;;;;;4987748;28;87112;-49
2022/03/10 08:49:03;;;;;;;;;;;-0.30;67.20;;;;;;4987133;28;89423;-48
2022/03/10 08:51:30;;;;;;;;;;;-0.40;67.30;;;;;;4988337;28;86842;-48
2022/03/10 08:53:55;;;;;;;;;;;-0.40;67.80;;;;;;4988376;28;86853;-48
2022/03/10 08:56:21;;;;;;;;;;;-0.30;67.60;;;;;;4987765;28;87820;-48
2022/03/10 08:58:47;;;;;;;;;;;-0.30;67.50;;;;;;4988177;28;86789;-49
2022/03/10 09:01:12;;;;;;;;;;;-0.30;67.40;;;;;;4990839;28;86750;-48
2022/03/10 09:03:38;;;;;;;;;;;-0.30;67.20;;;;;;4988111;28;86892;-48
2022/03/10 09:06:04;;;;;;;;;;;-0.30;67.70;;;;;;4988392;28;86887;-48
2022/03/10 09:08:30;;;;;;;;;;;-0.20;67.50;;;;;;4987491;28;87638;-48
2022/03/10 09:10:55;;;;;;;;;;;-0.30;67.20;;;;;;4987910;28;86827;-48
2022/03/10 09:13:22;;;;;;;;;;;-0.20;67.40;;;;;;4987206;28;88363;-48
2022/03/10 09:15:48;;;;;;;;;;;-0.20;67.00;;;;;;4987356;28;88609;-48
2022/03/10 09:18:15;;;;;;;;;;;-0.20;67.20;;;;;;4987473;28;86850;-48
2022/03/10 09:20:40;;;;;;;;;;;-0.20;67.20;;;;;;4987710;28;87846;-48
2022/03/10 09:23:06;;;;;;;;;;;-0.20;67.00;;;;;;4990204;28;88461;-48
2022/03/10 09:25:32;;;;;;;;;;;-0.20;66.90;;;;;;4988143;28;87059;-48
2022/03/10 09:27:58;;;;;;;;;;;-0.20;67.30;;;;;;4987193;28;88633;-48
2022/03/10 09:30:23;;;;;;;;;;;-0.20;67.00;;;;;;4988038;28;86446;-49
2022/03/10 09:32:49;;;;;;;;;;;-0.20;67.00;;;;;;4987639;28;87209;-49
2022/03/10 09:35:16;;;;;;;;;;;-0.20;67.10;;;;;;4987286;28;89239;-48
2022/03/10 09:37:41;;;;;;;;;;;-0.20;67.00;;;;;;4986807;28;87979;-49
2022/03/10 09:40:08;;;;;;;;;;;-0.20;67.30;;;;;;4987706;28;87051;-48
2022/03/10 09:42:35;;;;;;;;;;;-0.20;67.30;;;;;;4987018;28;87466;-48
2022/03/10 09:45:02;;;;;;;;;;;-0.20;67.30;;;;;;4990254;28;86855;-49
2022/03/10 09:47:28;;;;;;;;;;;-0.20;67.40;;;;;;4986553;28;88467;-49
2022/03/10 09:49:54;;;;;;;;;;;-0.10;67.40;;;;;;4987252;28;86928;-49
2022/03/10 09:52:20;;;;;;;;;;;-0.10;67.30;;;;;;4987302;28;87048;-48
2022/03/10 09:54:46;;;;;;;;;;;-0.10;67.40;;;;;;4987461;28;86747;-48
2022/03/10 09:57:14;;;;;;;;;;;-0.10;67.40;;;;;;4987199;28;86935;-48
2022/03/10 09:59:50;;;;;;;;;;;0.00;67.40;;;;;;4987457;28;86788;-50
2022/03/10 10:02:15;;;;;;;;;;;0.00;67.40;;;;;;4986054;28;89715;-50
2022/03/10 10:04:43;;;;;;;;;;;-0.10;67.10;;;;;;4987142;28;87081;-48
2022/03/10 10:07:10;;;;;;;;;;;-0.20;67.40;;;;;;4989578;28;88086;-48
2022/03/10 10:09:43;;;;;;;;;;;-0.10;67.20;;;;;;4986082;28;86840;-49
2022/03/10 10:12:09;;;;;;;;;;;-0.10;66.60;;;;;;4987015;28;87871;-48
2022/03/10 10:14:39;;;;;;;;;;;-0.20;67.20;;;;;;4986657;28;89973;-48
2022/03/10 10:17:05;;;;;;;;;;;-0.10;67.40;;;;;;4986990;28;86846;-48
2022/03/10 10:19:35;;;;;;;;;;;-0.10;67.00;;;;;;4987654;28;86740;-48
2022/03/10 10:22:14;;;;;;;;;;;0.00;67.20;;;;;;4986386;28;88576;-48
2022/03/10 10:24:40;;;;;;;;;;;0.00;67.20;;;;;;4986790;28;86893;-49
2022/03/10 10:27:13;;;;;;;;;;;0.00;67.00;;;;;;4986171;28;88092;-48
2022/03/10 10:29:49;;;;;;;;;;;0.00;67.00;;;;;;4988417;28;87504;-48
2022/03/10 10:32:26;;;;;;;;;;;-0.10;66.80;;;;;;4986689;28;87154;-50
2022/03/10 10:34:58;;;;;;;;;;;-0.10;67.40;;;;;;4986306;28;88680;-48
2022/03/10 10:37:24;;;;;;;;;;;-0.10;67.20;;;;;;4986667;28;86906;-49
2022/03/10 10:39:50;;;;;;;;;;;0.00;67.40;;;;;;4986630;28;86892;-49
2022/03/10 10:42:16;;;;;;;;;;;0.00;67.30;;;;;;4986209;28;88491;-49
2022/03/10 10:44:42;;;;;;;;;;;-0.10;67.10;;;;;;4987300;28;86039;-48
2022/03/10 10:47:07;;;;;;;;;;;0.00;67.10;;;;;;4986046;28;87191;-49
2022/03/10 10:49:34;;;;;;;;;;;0.00;66.80;;;;;;4986072;28;87425;-48
2022/03/10 10:51:59;;;;;;;;;;;0.00;66.70;;;;;;4988840;28;87747;-49
2022/03/10 10:54:27;;;;;;;;;;;0.00;66.90;;;;;;4986060;28;88427;-48
2022/03/10 10:56:54;;;;;;;;;;;0.00;66.60;;;;;;4986422;28;86852;-49
2022/03/10 10:59:26;;;;;;;;;;;0.10;66.40;;;;;;4986911;28;86851;-50
2022/03/10 11:02:02;;;;;;;;;;;0.10;66.30;;;;;;4986064;28;87717;-48
2022/03/10 11:04:30;;;;;;;;;;;0.10;66.30;;;;;;4986366;28;86959;-48
2022/03/10 11:06:56;;;;;;;;;;;0.10;66.60;;;;;;4986401;28;88016;-49
2022/03/10 11:09:22;;;;;;;;;;;0.10;67.00;;;;;;4986669;28;86907;-49
2022/03/10 11:11:49;;;;;;;;;;;0.10;66.50;;;;;;4989376;28;86891;-49
2022/03/10 11:14:15;;;;;;;;;;;0.10;66.50;;;;;;4985865;28;87680;-48
2022/03/10 11:16:42;;;;;;;;;;;0.10;66.10;;;;;;4985613;28;87773;-49
2022/03/10 11:19:10;;;;;;;;;;;0.10;66.30;;;;;;4986108;28;89125;-49
2022/03/10 11:21:59;;;;;;;;;;;0.10;66.00;;;;;;4986142;28;86861;-49
2022/03/10 11:24:32;;;;;;;;;;;0.10;66.10;;;;;;4939405;28;87130;-49
2022/03/10 11:27:18;;;;;;;;;;;0.20;66.70;;;;;;4986312;28;86940;-48
2022/03/10 11:29:53;;;;;;;;;;;0.20;66.30;;;;;;4985077;28;88626;-49
2022/03/10 11:32:24;;;;;;;;;;;0.20;66.30;;;;;;4986016;28;86794;-49
2022/03/10 11:34:53;;;;;;;;;;;0.20;65.90;;;;;;4988927;28;88053;-49
2022/03/10 11:37:37;;;;;;;;;;;0.20;66.00;;;;;;4986063;28;86813;-49
2022/03/10 11:40:04;;;;;;;;;;;0.20;66.20;;;;;;4986398;28;86889;-51
2022/03/10 11:42:30;;;;;;;;;;;0.20;66.20;;;;;;4987958;28;89547;-51
2022/03/10 11:45:11;;;;;;;;;;;0.20;65.90;;;;;;4988747;28;86782;-49
2022/03/10 11:47:38;;;;;;;;;;;0.20;66.00;;;;;;4988518;28;87801;-50
2022/03/10 11:50:22;;;;;;;;;;;0.30;66.00;;;;;;4988307;28;88992;-50
2022/03/10 11:53:01;;;;;;;;;;;0.30;65.80;;;;;;4988608;28;86943;-53
2022/03/10 11:55:43;;;;;;;;;;;0.30;65.60;;;;;;4989164;28;86940;-51
2022/03/10 11:58:13;;;;;;;;;;;0.30;65.60;;;;;;4991227;28;87432;-49
2022/03/10 12:00:44;;;;;;;;;;;0.30;65.40;;;;;;4989014;28;87064;-49
2022/03/10 12:03:11;;;;;;;;;;;0.30;64.60;;;;;;4988924;28;86980;-49
2022/03/10 12:05:58;;;;;;;;;;;0.30;65.40;;;;;;4989266;28;86857;-48
2022/03/10 12:08:25;;;;;;;;;;;0.30;65.50;;;;;;4988325;28;88132;-48
2022/03/10 12:10:51;;;;;;;;;;;0.40;66.10;;;;;;4988541;28;88578;-48
2022/03/10 12:13:26;;;;;;;;;;;0.40;65.90;;;;;;4988832;28;86895;-48
2022/03/10 12:15:52;;;;;;;;;;;0.40;65.50;;;;;;4988840;28;88330;-49
2022/03/10 12:18:23;;;;;;;;;;;0.40;65.30;;;;;;4988267;28;88505;-49
2022/03/10 12:20:50;;;;;;;;;;;0.40;65.50;;;;;;4991901;28;86905;-49
2022/03/10 12:23:17;;;;;;;;;;;0.40;65.90;;;;;;4988248;28;88382;-49
2022/03/10 12:25:43;;;;;;;;;;;0.40;65.40;;;;;;4989123;28;86145;-49
2022/03/10 12:28:33;;;;;;;;;;;0.50;65.90;;;;;;4988638;28;87266;-49
2022/03/10 12:31:03;;;;;;;;;;;0.40;65.80;;;;;;4988228;28;88455;-49
2022/03/10 12:33:29;;;;;;;;;;;0.50;65.70;;;;;;4987988;28;87866;-49
2022/03/10 12:35:56;;;;;;;;;;;0.50;65.70;;;;;;4988599;28;88841;-48
2022/03/10 12:38:41;;;;;;;;;;;0.50;65.20;;;;;;4988136;28;88818;-48
2022/03/10 12:41:08;;;;;;;;;;;0.50;65.90;;;;;;4988391;28;86862;-48
2022/03/10 12:43:34;;;;;;;;;;;0.50;65.40;;;;;;4990846;28;87942;-48
2022/03/10 12:46:00;;;;;;;;;;;0.50;65.80;;;;;;4988251;28;87131;-48
2022/03/10 12:48:31;;;;;;;;;;;0.60;65.50;;;;;;4987967;28;87067;-49
2022/03/10 12:50:57;;;;;;;;;;;0.60;65.40;;;;;;4988393;28;87751;-49
2022/03/10 12:53:22;;;;;;;;;;;0.60;64.10;;;;;;4987439;28;86882;-48
2022/03/10 12:55:55;;;;;;;;;;;0.60;65.10;;;;;;4988156;28;88125;-49
2022/03/10 12:58:28;;;;;;;;;;;0.60;64.90;;;;;;4986972;28;88624;-48
2022/03/10 13:01:02;;;;;;;;;;;0.60;64.90;;;;;;4988116;28;87109;-49
2022/03/10 13:03:33;;;;;;;;;;;0.60;65.40;;;;;;4987938;28;88283;-49
2022/03/10 13:06:00;;;;;;;;;;;0.60;65.60;;;;;;4990780;28;87020;-48
2022/03/10 13:08:26;;;;;;;;;;;0.60;65.70;;;;;;4987883;28;88288;-49
2022/03/10 13:10:59;;;;;;;;;;;0.60;65.60;;;;;;4987767;28;87434;-49
2022/03/10 13:13:30;;;;;;;;;;;0.60;65.70;;;;;;4987856;28;86862;-48
2022/03/10 13:16:00;;;;;;;;;;;0.60;65.80;;;;;;4988384;28;87901;-48
2022/03/10 13:18:26;;;;;;;;;;;0.60;66.00;;;;;;4987498;28;88366;-48
2022/03/10 13:20:56;;;;;;;;;;;0.60;65.90;;;;;;4988012;28;87039;-49
2022/03/10 13:23:24;;;;;;;;;;;0.60;65.60;;;;;;4987350;28;87853;-48
2022/03/10 13:25:50;;;;;;;;;;;0.60;65.50;;;;;;4990092;28;88472;-49
2022/03/10 13:28:16;;;;;;;;;;;0.70;65.50;;;;;;4987907;28;86815;-49
2022/03/10 13:30:45;;;;;;;;;;;0.60;65.50;;;;;;4987193;28;87579;-49
2022/03/10 13:33:12;;;;;;;;;;;0.70;65.60;;;;;;4987526;28;86905;-49
2022/03/10 13:35:38;;;;;;;;;;;0.70;65.60;;;;;;4987588;28;87316;-49
2022/03/10 13:38:08;;;;;;;;;;;0.70;65.40;;;;;;4986319;28;87456;-49
2022/03/10 13:40:34;;;;;;;;;;;0.70;65.00;;;;;;4988020;28;86034;-49
2022/03/10 13:43:02;;;;;;;;;;;0.70;65.10;;;;;;4987527;28;87252;-49
2022/03/10 13:45:28;;;;;;;;;;;0.70;65.20;;;;;;4986976;28;87685;-48
2022/03/10 13:47:53;;;;;;;;;;;0.80;65.00;;;;;;4989136;28;87798;-49
2022/03/10 13:50:19;;;;;;;;;;;0.80;65.40;;;;;;4986795;28;87822;-48
2022/03/10 13:52:47;;;;;;;;;;;0.80;65.50;;;;;;4987305;28;86855;-48
2022/03/10 13:55:13;;;;;;;;;;;0.80;65.50;;;;;;4987441;28;86841;-49
2022/03/10 13:57:42;;;;;;;;;;;0.80;65.50;;;;;;4987092;28;87547;-49
2022/03/10 14:00:08;;;;;;;;;;;0.90;65.50;;;;;;4987402;28;86990;-48
2022/03/10 14:02:34;;;;;;;;;;;0.80;65.00;;;;;;4987272;28;87148;-48
2022/03/10 14:05:10;;;;;;;;;;;0.80;65.00;;;;;;4986337;28;86778;-49
2022/03/10 14:07:36;;;;;;;;;;;0.80;65.50;;;;;;4987130;28;86844;-49
2022/03/10 14:10:02;;;;;;;;;;;0.80;65.60;;;;;;4989638;28;87044;-48
2022/03/10 14:12:30;;;;;;;;;;;0.80;65.10;;;;;;4986337;28;87852;-48
2022/03/10 14:14:56;;;;;;;;;;;0.80;65.20;;;;;;4986871;28;88737;-49
2022/03/10 14:17:39;;;;;;;;;;;0.80;65.10;;;;;;4986733;28;87665;-48
2022/03/10 14:20:05;;;;;;;;;;;0.80;64.50;;;;;;4986957;28;86992;-48
2022/03/10 14:22:33;;;;;;;;;;;0.80;65.00;;;;;;4987137;28;87808;-48
2022/03/10 14:24:59;;;;;;;;;;;0.80;64.80;;;;;;4986608;28;87594;-48
2022/03/10 14:27:26;;;;;;;;;;;0.70;64.30;;;;;;4986931;28;86933;-49
2022/03/10 14:29:56;;;;;;;;;;;0.70;64.90;;;;;;4987095;28;88097;-49